createdAt,value
2023-05-09T00:00:17.783Z,3.70
2023-05-09T00:02:48.204Z,3.73
2023-05-09T00:05:16.584Z,3.68
2023-05-09T00:07:43.974Z,3.74
2023-05-09T00:10:12.478Z,3.76
2023-05-09T00:12:40.166Z,3.69
2023-05-09T00:15:08.702Z,3.70
2023-05-09T00:17:36.797Z,3.72
2023-05-09T00:20:08.139Z,3.70
2023-05-09T00:22:37.388Z,3.64
2023-05-09T00:25:05.138Z,3.62
2023-05-09T00:27:39.018Z,3.57
2023-05-09T00:30:13.614Z,3.52
2023-05-09T00:32:41.823Z,3.56
2023-05-09T00:35:10.627Z,3.50
2023-05-09T00:37:38.035Z,3.43
2023-05-09T00:40:06.864Z,3.50
2023-05-09T00:42:34.463Z,3.53
2023-05-09T00:45:08.869Z,3.41
2023-05-09T00:47:42.167Z,3.43
2023-05-09T00:50:10.187Z,3.40
2023-05-09T00:52:37.878Z,3.24
2023-05-09T00:55:08.675Z,3.23
2023-05-09T00:57:36.749Z,3.29
2023-05-09T01:00:05.699Z,3.10
2023-05-09T01:02:33.530Z,2.53
2023-05-09T01:05:02.340Z,2.45
2023-05-09T01:08:07.845Z,2.46
2023-05-09T01:10:51.221Z,2.14
2023-05-09T01:13:29.258Z,2.14
2023-05-09T01:16:09.547Z,2.50
2023-05-09T01:19:01.863Z,2.75
2023-05-09T01:21:32.663Z,2.74
2023-05-09T01:24:12.273Z,2.69
2023-05-09T01:27:18.385Z,2.83
2023-05-09T01:29:49.138Z,2.78
2023-05-09T01:32:25.248Z,2.55
2023-05-09T01:35:04.774Z,2.08
2023-05-09T01:37:38.462Z,1.95
2023-05-09T01:40:16.973Z,1.73
2023-05-09T01:42:49.384Z,1.65
2023-05-09T01:45:18.094Z,1.44
2023-05-09T01:47:49.239Z,1.22
2023-05-09T01:50:19.288Z,1.22
2023-05-09T01:52:49.946Z,1.71
2023-05-09T01:55:21.942Z,1.89
2023-05-09T01:57:50.682Z,1.90
2023-05-09T02:00:19.793Z,1.93
2023-05-09T02:02:47.170Z,1.92
2023-05-09T02:05:16.048Z,2.05
2023-05-09T02:07:45.226Z,2.20
2023-05-09T02:10:13.185Z,2.26
2023-05-09T02:12:42.791Z,2.36
2023-05-09T02:15:10.504Z,2.53
2023-05-09T02:17:43.753Z,2.64
2023-05-09T02:20:12.314Z,2.61
2023-05-09T02:22:43.987Z,2.53
2023-05-09T02:25:16.072Z,2.57
2023-05-09T02:27:46.554Z,2.74
2023-05-09T02:30:23.650Z,2.77
2023-05-09T02:32:55.655Z,2.87
2023-05-09T02:35:25.464Z,2.71
2023-05-09T02:37:54.520Z,2.81
2023-05-09T02:40:23.039Z,2.70
2023-05-09T02:42:50.572Z,2.72
2023-05-09T02:45:18.235Z,2.62
2023-05-09T02:47:47.653Z,2.69
2023-05-09T02:50:15.013Z,2.75
2023-05-09T02:52:43.429Z,2.78
2023-05-09T02:55:12.195Z,2.78
2023-05-09T02:57:42.014Z,2.82
2023-05-09T03:00:10.084Z,2.86
2023-05-09T03:02:38.485Z,2.89
2023-05-09T03:05:06.349Z,2.87
2023-05-09T03:07:34.457Z,2.90
2023-05-09T03:10:01.824Z,2.91
2023-05-09T03:12:29.131Z,2.87
2023-05-09T03:14:56.784Z,2.90
2023-05-09T03:17:24.219Z,2.86
2023-05-09T03:19:51.626Z,2.97
2023-05-09T03:22:19.059Z,2.94
2023-05-09T03:24:47.669Z,3.00
2023-05-09T03:27:15.085Z,2.91
2023-05-09T03:29:42.489Z,2.91
2023-05-09T03:32:11.660Z,2.95
2023-05-09T03:34:40.499Z,3.07
2023-05-09T03:37:08.012Z,3.08
2023-05-09T03:39:37.577Z,3.09
2023-05-09T03:42:07.460Z,3.23
2023-05-09T03:44:35.031Z,3.25
2023-05-09T03:47:03.545Z,3.32
2023-05-09T03:49:31.926Z,3.43
2023-05-09T03:51:59.372Z,3.45
2023-05-09T03:54:26.888Z,3.52
2023-05-09T03:56:54.378Z,3.46
2023-05-09T03:59:21.927Z,3.43
2023-05-09T04:01:49.130Z,3.55
2023-05-09T04:04:19.017Z,3.59
2023-05-09T04:06:56.372Z,3.72
2023-05-09T04:09:23.960Z,3.70
2023-05-09T04:11:56.934Z,3.78
2023-05-09T04:14:25.138Z,3.93
2023-05-09T04:16:52.535Z,3.97
2023-05-09T04:19:20.321Z,4.01
2023-05-09T04:21:49.738Z,4.11
2023-05-09T04:24:18.188Z,4.14
2023-05-09T04:26:46.471Z,4.13
2023-05-09T04:29:16.078Z,4.26
2023-05-09T04:31:43.355Z,4.31
2023-05-09T04:34:10.811Z,4.33
2023-05-09T04:36:37.906Z,4.46
2023-05-09T04:39:08.764Z,4.50
2023-05-09T04:41:36.127Z,4.59
2023-05-09T04:44:03.728Z,4.80
2023-05-09T04:46:31.246Z,4.84
2023-05-09T04:48:58.520Z,4.96
2023-05-09T04:51:26.407Z,5.01
2023-05-09T04:53:53.910Z,5.03
2023-05-09T04:56:22.203Z,5.17
2023-05-09T04:58:49.567Z,5.22
2023-05-09T05:01:17.156Z,5.36
2023-05-09T05:03:44.418Z,5.40
2023-05-09T05:06:14.887Z,5.43
2023-05-09T05:08:42.324Z,5.53
2023-05-09T05:11:09.889Z,5.70
2023-05-09T05:13:37.197Z,5.72
2023-05-09T05:16:04.947Z,5.82
2023-05-09T05:18:34.312Z,5.90
2023-05-09T05:21:01.575Z,6.01
2023-05-09T05:23:29.355Z,6.11
2023-05-09T05:25:57.612Z,6.25
2023-05-09T05:28:26.133Z,6.32
2023-05-09T05:30:53.466Z,6.50
2023-05-09T05:33:21.436Z,6.57
2023-05-09T05:35:49.987Z,6.71
2023-05-09T05:38:17.425Z,6.85
2023-05-09T05:40:45.011Z,6.94
2023-05-09T05:43:13.241Z,7.02
2023-05-09T05:45:41.999Z,7.29
2023-05-09T05:48:09.268Z,7.30
2023-05-09T05:50:37.065Z,7.44
2023-05-09T05:53:04.518Z,7.68
2023-05-09T05:55:31.752Z,7.81
2023-05-09T05:57:59.072Z,7.89
2023-05-09T06:00:26.602Z,8.04
2023-05-09T06:02:53.760Z,8.18
2023-05-09T06:05:22.052Z,8.42
2023-05-09T06:07:51.534Z,8.54
2023-05-09T06:10:19.060Z,8.74
2023-05-09T06:12:46.512Z,8.88
2023-05-09T06:15:15.196Z,9.07
2023-05-09T06:17:43.130Z,9.18
2023-05-09T06:20:10.593Z,9.21
2023-05-09T06:22:37.829Z,9.42
2023-05-09T06:25:06.442Z,9.51
2023-05-09T06:27:35.268Z,9.64
2023-05-09T06:30:14.124Z,9.73
2023-05-09T06:32:51.186Z,9.82
2023-05-09T06:35:18.786Z,10.05
2023-05-09T06:37:48.243Z,10.07
2023-05-09T06:40:17.765Z,10.13
2023-05-09T06:42:46.285Z,10.33
2023-05-09T06:45:13.887Z,10.45
2023-05-09T06:47:41.491Z,10.49
2023-05-09T06:50:09.432Z,10.53
2023-05-09T06:52:37.061Z,10.55
2023-05-09T06:55:05.782Z,10.63
2023-05-09T06:57:33.102Z,10.74
2023-05-09T07:00:02.462Z,10.96
2023-05-09T07:02:29.537Z,11.02
2023-05-09T07:04:56.972Z,11.12
2023-05-09T07:07:24.499Z,11.14
2023-05-09T07:09:55.201Z,11.23
2023-05-09T07:12:28.007Z,11.08
2023-05-09T07:14:55.402Z,11.09
2023-05-09T07:17:24.127Z,10.96
2023-05-09T07:19:52.084Z,11.07
2023-05-09T07:22:19.416Z,11.39
2023-05-09T07:24:48.800Z,11.44
2023-05-09T07:27:17.310Z,11.55
2023-05-09T07:29:45.801Z,11.61
2023-05-09T07:32:13.301Z,11.69
2023-05-09T07:34:41.634Z,11.69
2023-05-09T07:37:09.124Z,11.70
2023-05-09T07:39:36.711Z,11.90
2023-05-09T07:42:04.268Z,12.21
2023-05-09T07:44:31.640Z,12.26
2023-05-09T07:47:02.916Z,12.27
2023-05-09T07:49:30.014Z,12.35
2023-05-09T07:51:58.583Z,12.46
2023-05-09T07:54:25.988Z,12.58
2023-05-09T07:56:53.706Z,12.52
2023-05-09T07:59:22.145Z,12.63
2023-05-09T08:01:49.282Z,12.60
2023-05-09T08:04:25.165Z,12.75
2023-05-09T08:06:59.784Z,12.70
2023-05-09T08:09:27.052Z,12.86
2023-05-09T08:12:13.108Z,13.09
2023-05-09T08:14:47.543Z,13.04
2023-05-09T08:17:14.984Z,13.11
2023-05-09T08:19:42.568Z,13.13
2023-05-09T08:22:09.941Z,13.31
2023-05-09T08:24:37.463Z,13.27
2023-05-09T08:27:04.727Z,13.37
2023-05-09T08:29:32.311Z,13.59
2023-05-09T08:31:59.767Z,13.77
2023-05-09T08:34:28.274Z,13.74
2023-05-09T08:37:04.155Z,13.70
2023-05-09T08:39:35.080Z,13.80
2023-05-09T08:42:03.120Z,13.90
2023-05-09T08:44:36.723Z,14.03
2023-05-09T08:47:05.223Z,14.37
2023-05-09T08:49:33.706Z,14.61
2023-05-09T08:52:01.336Z,14.41
2023-05-09T08:54:30.324Z,14.42
2023-05-09T08:56:58.170Z,14.63
2023-05-09T08:59:27.472Z,14.75
2023-05-09T09:01:55.226Z,14.59
2023-05-09T09:04:23.363Z,14.74
2023-05-09T09:06:52.208Z,14.96
2023-05-09T09:09:20.855Z,15.22
2023-05-09T09:11:49.193Z,15.33
2023-05-09T09:14:23.954Z,15.45
2023-05-09T09:16:53.380Z,15.82
2023-05-09T09:19:23.105Z,15.58
2023-05-09T09:21:56.429Z,15.93
2023-05-09T09:24:24.056Z,16.09
2023-05-09T09:26:57.725Z,16.34
2023-05-09T09:29:29.022Z,16.40
2023-05-09T09:31:56.493Z,16.62
2023-05-09T09:34:24.668Z,16.53
2023-05-09T09:36:52.280Z,16.27
2023-05-09T09:39:19.756Z,16.50
2023-05-09T09:41:47.175Z,16.74
2023-05-09T09:44:19.473Z,17.06
2023-05-09T09:46:54.963Z,17.22
2023-05-09T09:49:23.982Z,17.00
2023-05-09T09:51:56.051Z,17.00
2023-05-09T09:54:27.636Z,17.34
2023-05-09T09:57:02.321Z,17.32
2023-05-09T09:59:29.849Z,17.65
2023-05-09T10:02:00.146Z,17.80
2023-05-09T10:04:31.392Z,18.03
2023-05-09T10:07:00.966Z,18.14
2023-05-09T10:09:28.924Z,18.07
2023-05-09T10:11:57.464Z,18.01
2023-05-09T10:14:27.010Z,17.94
2023-05-09T10:16:58.066Z,17.48
2023-05-09T10:19:28.878Z,17.69
2023-05-09T10:21:59.040Z,17.92
2023-05-09T10:25:01.324Z,18.27
2023-05-09T10:27:32.995Z,18.53
2023-05-09T10:30:09.087Z,18.49
2023-05-09T10:32:58.427Z,18.74
2023-05-09T10:35:31.339Z,19.17
2023-05-09T10:37:59.480Z,18.52
2023-05-09T10:40:28.475Z,18.22
2023-05-09T10:42:57.175Z,18.20
2023-05-09T10:45:24.744Z,18.57
2023-05-09T10:47:53.544Z,18.36
2023-05-09T10:50:21.952Z,18.23
2023-05-09T10:53:05.380Z,17.95
2023-05-09T10:55:48.186Z,18.30
2023-05-09T10:58:20.618Z,18.38
2023-05-09T11:00:55.217Z,18.73
2023-05-09T11:03:30.268Z,19.27
2023-05-09T11:05:59.343Z,19.43
2023-05-09T11:08:31.260Z,19.85
2023-05-09T11:11:05.991Z,19.64
2023-05-09T11:13:41.041Z,20.05
2023-05-09T11:16:12.551Z,20.15
2023-05-09T11:18:53.682Z,19.55
2023-05-09T11:21:21.440Z,19.45
2023-05-09T11:23:49.905Z,19.83
2023-05-09T11:26:22.776Z,19.17
2023-05-09T11:28:54.543Z,18.85
2023-05-09T11:31:22.098Z,19.08
2023-05-09T11:33:56.550Z,20.18
2023-05-09T11:36:32.500Z,20.60
2023-05-09T11:39:10.991Z,20.91
2023-05-09T11:41:51.555Z,20.88
2023-05-09T11:44:21.391Z,20.59
2023-05-09T11:46:50.252Z,20.86
2023-05-09T11:49:19.748Z,21.15
2023-05-09T11:51:47.211Z,21.54
2023-05-09T11:54:15.421Z,20.18
2023-05-09T11:56:42.877Z,19.81
2023-05-09T11:59:14.952Z,19.56
2023-05-09T12:01:42.949Z,19.79
2023-05-09T12:04:12.339Z,19.56
2023-05-09T12:06:39.814Z,19.11
2023-05-09T12:09:10.505Z,18.52
2023-05-09T12:11:38.712Z,19.25
2023-05-09T12:14:06.300Z,18.38
2023-05-09T12:16:33.747Z,17.84
2023-05-09T12:19:01.989Z,18.49
2023-05-09T12:21:29.951Z,18.74
2023-05-09T12:23:57.951Z,19.98
2023-05-09T12:26:25.935Z,21.09
2023-05-09T12:28:53.429Z,21.95
2023-05-09T12:31:21.304Z,22.17
2023-05-09T12:33:48.693Z,21.88
2023-05-09T12:36:17.056Z,22.63
2023-05-09T12:38:56.938Z,21.83
2023-05-09T12:43:56.938Z,20.57
2023-05-09T12:46:24.646Z,20.90
2023-05-09T12:48:53.116Z,21.51
2023-05-09T12:51:22.549Z,20.89
2023-05-09T12:53:50.406Z,20.04
2023-05-09T12:56:20.052Z,19.90
2023-05-09T12:58:52.603Z,19.73
2023-05-09T13:01:21.579Z,20.30
2023-05-09T13:04:02.078Z,21.08
2023-05-09T13:06:29.527Z,20.64
2023-05-09T13:09:09.217Z,19.53
2023-05-09T13:11:38.200Z,19.61
2023-05-09T13:14:06.000Z,19.35
2023-05-09T13:16:33.724Z,20.02
2023-05-09T13:19:02.252Z,20.56
2023-05-09T13:21:32.280Z,19.76
2023-05-09T13:24:06.530Z,19.71
2023-05-09T13:26:34.512Z,20.19
2023-05-09T13:29:02.141Z,19.56
2023-05-09T13:31:29.789Z,19.78
2023-05-09T13:33:58.215Z,20.28
2023-05-09T13:36:27.014Z,21.53
2023-05-09T13:38:54.571Z,22.75
2023-05-09T13:41:22.736Z,23.31
2023-05-09T13:43:50.361Z,22.28
2023-05-09T13:46:19.052Z,21.32
2023-05-09T13:48:48.161Z,21.10
2023-05-09T13:51:16.450Z,21.70
2023-05-09T13:53:43.964Z,22.70
2023-05-09T13:56:17.491Z,23.58
2023-05-09T13:58:45.989Z,23.94
2023-05-09T14:01:13.387Z,22.29
2023-05-09T14:03:41.025Z,21.31
2023-05-09T14:06:09.622Z,21.41
2023-05-09T14:08:37.890Z,21.55
2023-05-09T14:11:07.849Z,21.21
2023-05-09T14:13:35.347Z,21.59
2023-05-09T14:16:02.709Z,21.88
2023-05-09T14:18:30.227Z,20.78
2023-05-09T14:20:58.203Z,21.21
2023-05-09T14:23:26.570Z,20.96
2023-05-09T14:25:56.069Z,21.89
2023-05-09T14:28:23.660Z,21.45
2023-05-09T14:30:52.346Z,21.69
2023-05-09T14:33:21.709Z,21.97
2023-05-09T14:35:50.101Z,22.38
2023-05-09T14:38:18.640Z,22.95
2023-05-09T14:40:48.032Z,23.61
2023-05-09T14:43:16.134Z,22.74
2023-05-09T14:45:43.667Z,22.24
2023-05-09T14:48:10.982Z,20.95
2023-05-09T14:50:45.167Z,20.81
2023-05-09T14:53:13.595Z,22.02
2023-05-09T14:55:42.053Z,21.60
2023-05-09T14:58:09.754Z,19.10
2023-05-09T15:00:43.104Z,19.68
2023-05-09T15:03:12.078Z,19.85
2023-05-09T15:05:40.861Z,19.35
2023-05-09T15:08:10.181Z,19.52
2023-05-09T15:10:37.688Z,20.22
2023-05-09T15:13:05.925Z,20.62
2023-05-09T15:15:33.897Z,20.64
2023-05-09T15:18:03.662Z,20.79
2023-05-09T15:20:38.309Z,21.70
2023-05-09T15:23:08.810Z,22.40
2023-05-09T15:25:36.516Z,22.15
2023-05-09T15:28:03.759Z,22.24
2023-05-09T15:30:31.184Z,22.82
2023-05-09T15:32:59.451Z,23.26
2023-05-09T15:35:27.793Z,23.26
2023-05-09T15:37:55.582Z,23.33
2023-05-09T15:40:23.182Z,23.98
2023-05-09T15:42:51.793Z,24.14
2023-05-09T15:45:20.285Z,24.04
2023-05-09T15:47:47.907Z,22.42
2023-05-09T15:50:16.590Z,22.55
2023-05-09T15:52:45.877Z,23.10
2023-05-09T15:55:13.340Z,23.15
2023-05-09T15:57:40.752Z,23.06
2023-05-09T16:00:10.733Z,22.14
2023-05-09T16:02:38.015Z,22.63
2023-05-09T16:05:06.188Z,22.74
2023-05-09T16:07:35.653Z,22.38
2023-05-09T16:10:06.391Z,22.38
2023-05-09T16:12:35.850Z,21.90
2023-05-09T16:15:03.394Z,21.85
2023-05-09T16:17:34.688Z,22.09
2023-05-09T16:20:02.584Z,22.45
2023-05-09T16:22:29.701Z,22.34
2023-05-09T16:24:57.066Z,21.91
2023-05-09T16:27:24.598Z,21.93
2023-05-09T16:29:52.142Z,21.73
2023-05-09T16:32:21.560Z,21.65
2023-05-09T16:34:49.423Z,21.69
2023-05-09T16:37:19.035Z,21.29
2023-05-09T16:39:46.462Z,21.18
2023-05-09T16:42:14.993Z,21.21
2023-05-09T16:44:42.479Z,20.79
2023-05-09T16:47:09.915Z,20.74
2023-05-09T16:49:37.462Z,20.80
2023-05-09T16:52:05.984Z,20.62
2023-05-09T16:54:33.187Z,20.49
2023-05-09T16:57:00.185Z,20.45
2023-05-09T16:59:27.682Z,20.22
2023-05-09T17:01:54.682Z,20.00
2023-05-09T17:04:25.687Z,20.09
2023-05-09T17:06:53.553Z,20.23
2023-05-09T17:09:21.122Z,20.14
2023-05-09T17:11:49.173Z,20.15
2023-05-09T17:14:17.584Z,20.07
2023-05-09T17:16:45.067Z,20.04
2023-05-09T17:19:14.525Z,19.76
2023-05-09T17:21:42.009Z,19.59
2023-05-09T17:24:10.479Z,19.44
2023-05-09T17:26:38.963Z,19.39
2023-05-09T17:29:06.499Z,19.24
2023-05-09T17:31:33.931Z,19.27
2023-05-09T17:34:01.734Z,19.16
2023-05-09T17:36:29.312Z,19.22
2023-05-09T17:38:58.678Z,19.19
2023-05-09T17:41:25.702Z,18.92
2023-05-09T17:43:56.732Z,18.90
2023-05-09T17:46:24.520Z,18.80
2023-05-09T17:48:52.267Z,18.51
2023-05-09T17:51:19.604Z,18.20
2023-05-09T17:53:47.095Z,17.80
2023-05-09T17:56:14.542Z,17.79
2023-05-09T17:58:42.326Z,17.54
2023-05-09T18:01:16.227Z,17.55
2023-05-09T18:03:43.608Z,17.45
2023-05-09T18:06:11.132Z,17.34
2023-05-09T18:08:39.690Z,17.23
2023-05-09T18:11:06.898Z,17.00
2023-05-09T18:13:36.232Z,16.70
2023-05-09T18:16:03.480Z,16.55
2023-05-09T18:18:33.571Z,16.53
2023-05-09T18:21:05.751Z,16.48
2023-05-09T18:23:32.965Z,16.45
2023-05-09T18:26:00.482Z,16.34
2023-05-09T18:28:30.003Z,16.39
2023-05-09T18:31:01.505Z,16.27
2023-05-09T18:33:30.965Z,16.17
2023-05-09T18:35:59.453Z,15.79
2023-05-09T18:38:26.681Z,15.89
2023-05-09T18:40:54.145Z,15.89
2023-05-09T18:43:23.545Z,15.73
2023-05-09T18:45:52.253Z,15.74
2023-05-09T18:48:20.475Z,15.52
2023-05-09T18:50:48.024Z,15.34
2023-05-09T18:53:15.589Z,15.24
2023-05-09T18:55:43.152Z,15.01
2023-05-09T18:58:11.758Z,14.93
2023-05-09T19:00:39.941Z,14.82
2023-05-09T19:03:07.702Z,14.70
2023-05-09T19:05:36.063Z,14.64
2023-05-09T19:08:04.346Z,14.64
2023-05-09T19:10:32.314Z,14.60
2023-05-09T19:12:59.805Z,14.63
2023-05-09T19:15:31.132Z,14.55
2023-05-09T19:17:58.988Z,14.36
2023-05-09T19:20:26.763Z,14.23
2023-05-09T19:25:40.598Z,14.14
2023-05-09T19:28:15.354Z,13.85
2023-05-09T19:30:43.329Z,13.81
2023-05-09T19:33:12.246Z,13.82
2023-05-09T19:35:41.890Z,13.82
2023-05-09T19:38:12.715Z,13.88
2023-05-09T19:40:53.004Z,13.76
2023-05-09T19:43:21.055Z,13.68
2023-05-09T19:45:49.175Z,13.56
2023-05-09T19:48:17.680Z,13.51
2023-05-09T19:50:47.007Z,13.46
2023-05-09T19:53:14.688Z,13.44
2023-05-09T19:55:47.542Z,13.35
2023-05-09T19:58:17.625Z,13.34
2023-05-09T20:00:45.824Z,13.35
2023-05-09T20:03:13.628Z,13.24
2023-05-09T20:11:23.521Z,13.03
2023-05-09T20:13:57.529Z,13.01
2023-05-09T20:16:25.610Z,12.87
2023-05-09T20:18:56.527Z,12.77
2023-05-09T20:21:24.514Z,12.67
2023-05-09T20:23:52.682Z,12.57
2023-05-09T20:26:24.514Z,12.43
2023-05-09T20:28:55.325Z,12.34
2023-05-09T20:31:23.474Z,12.10
2023-05-09T20:33:52.322Z,12.12
2023-05-09T20:36:29.521Z,12.23
2023-05-09T20:38:58.721Z,12.12
2023-05-09T20:41:28.056Z,12.06
2023-05-09T20:43:59.756Z,11.99
2023-05-09T20:46:29.114Z,11.93
2023-05-09T20:49:04.760Z,11.81
2023-05-09T20:51:32.701Z,11.85
2023-05-09T20:54:00.489Z,11.91
2023-05-09T20:56:28.939Z,11.94
2023-05-09T20:58:56.678Z,11.87
2023-05-09T21:01:24.166Z,11.75
2023-05-09T21:03:52.807Z,11.75
2023-05-09T21:06:20.096Z,11.64
2023-05-09T21:08:48.688Z,11.51
2023-05-09T21:11:18.015Z,11.61
2023-05-09T21:13:45.571Z,11.56
2023-05-09T21:16:13.082Z,11.49
2023-05-09T21:18:40.494Z,11.52
2023-05-09T21:21:11.514Z,11.48
2023-05-09T21:23:39.026Z,11.38
2023-05-09T21:26:06.403Z,11.40
2023-05-09T21:28:33.850Z,11.35
2023-05-09T21:31:02.001Z,11.26
2023-05-09T21:33:29.910Z,11.23
2023-05-09T21:35:57.498Z,11.11
2023-05-09T21:38:26.799Z,11.04
2023-05-09T21:40:54.325Z,11.07
2023-05-09T21:43:21.690Z,10.95
2023-05-09T21:45:56.179Z,10.92
2023-05-09T21:48:24.759Z,10.84
2023-05-09T21:50:52.240Z,10.86
2023-05-09T21:53:19.712Z,10.83
2023-05-09T21:55:47.651Z,10.74
2023-05-09T21:58:15.062Z,10.85
2023-05-09T22:00:42.518Z,10.89
2023-05-09T22:03:10.254Z,10.95
2023-05-09T22:05:37.420Z,10.92
2023-05-09T22:08:05.025Z,10.87
2023-05-09T22:10:32.624Z,10.83
2023-05-09T22:13:01.965Z,10.76
2023-05-09T22:15:29.538Z,10.78
2023-05-09T22:17:56.765Z,10.76
2023-05-09T22:20:24.344Z,10.73
2023-05-09T22:22:52.672Z,10.73
2023-05-09T22:25:20.183Z,10.69
2023-05-09T22:27:47.655Z,10.67
2023-05-09T22:30:15.428Z,10.69
2023-05-09T22:32:43.360Z,10.65
2023-05-09T22:35:10.688Z,10.62
2023-05-09T22:37:37.949Z,10.55
2023-05-09T22:40:06.002Z,10.54
2023-05-09T22:42:34.939Z,10.45
2023-05-09T22:45:02.655Z,10.46
2023-05-09T22:47:29.833Z,10.45
2023-05-09T22:49:57.539Z,10.43
2023-05-09T22:52:26.490Z,10.42
2023-05-09T22:54:53.966Z,10.39
2023-05-09T22:57:23.889Z,10.33
2023-05-09T22:59:51.470Z,10.30
2023-05-09T23:02:18.560Z,10.35
2023-05-09T23:04:47.205Z,10.30
2023-05-09T23:07:15.494Z,10.24
2023-05-09T23:09:48.707Z,10.31
2023-05-09T23:12:16.231Z,10.29
2023-05-09T23:14:43.725Z,10.26
2023-05-09T23:17:11.267Z,10.24
2023-05-09T23:19:38.600Z,10.17
2023-05-09T23:22:06.049Z,10.10
2023-05-09T23:24:34.938Z,10.08
2023-05-09T23:27:05.546Z,10.07
2023-05-09T23:29:33.508Z,9.97
2023-05-09T23:32:00.960Z,9.97
2023-05-09T23:34:28.477Z,10.01
2023-05-09T23:36:55.990Z,10.02
2023-05-09T23:39:23.274Z,9.92
2023-05-09T23:41:50.782Z,9.87
2023-05-09T23:44:17.704Z,9.84
2023-05-09T23:46:45.276Z,9.80
2023-05-09T23:49:14.853Z,9.80
2023-05-09T23:51:42.136Z,9.72
2023-05-09T23:54:09.710Z,9.68
2023-05-09T23:56:37.235Z,9.63
2023-05-09T23:59:04.522Z,9.60
